createdAt,value
2022-10-05T00:00:20.857Z,16.40
2022-10-05T00:02:50.474Z,16.40
2022-10-05T00:05:22.406Z,17.80
2022-10-05T00:07:49.678Z,16.60
2022-10-05T00:10:19.341Z,16.40
2022-10-05T00:12:48.018Z,17.60
2022-10-05T00:15:17.737Z,16.40
2022-10-05T00:20:24.610Z,17.80
2022-10-05T00:22:57.417Z,15.40
2022-10-05T00:25:24.902Z,17.50
2022-10-05T00:27:56.658Z,16.40
2022-10-05T00:30:25.596Z,15.60
2022-10-05T00:32:57.257Z,15.70
2022-10-05T00:37:56.910Z,16.00
2022-10-05T00:40:36.766Z,17.10
2022-10-05T00:43:21.851Z,15.30
2022-10-05T00:46:07.835Z,16.30
2022-10-05T00:51:09.173Z,16.30
2022-10-05T00:56:37.329Z,15.20
2022-10-05T00:59:13.041Z,15.40
2022-10-05T01:01:47.884Z,15.10
2022-10-05T01:04:29.137Z,15.00
2022-10-05T01:07:04.185Z,15.30
2022-10-05T01:09:38.677Z,16.20
2022-10-05T01:12:23.524Z,16.30
2022-10-05T01:15:16.210Z,15.30
2022-10-05T01:17:59.254Z,16.20
2022-10-05T01:20:39.533Z,16.60
2022-10-05T01:23:33.565Z,16.20
2022-10-05T01:26:19.538Z,17.00
2022-10-05T01:31:45.736Z,17.00
2022-10-05T01:34:41.384Z,17.20
2022-10-05T01:37:15.637Z,16.80
2022-10-05T01:40:09.979Z,15.10
2022-10-05T01:43:03.547Z,15.90
2022-10-05T01:45:49.304Z,16.30
2022-10-05T01:48:48.825Z,16.50
2022-10-05T01:51:42.861Z,14.40
2022-10-05T01:54:25.537Z,15.90
2022-10-05T01:57:34.467Z,15.80
2022-10-05T02:02:31.783Z,15.80
2022-10-05T02:05:10.498Z,17.00
2022-10-05T02:07:43.911Z,15.30
2022-10-05T02:10:35.168Z,15.80
2022-10-05T02:13:22.778Z,15.80
2022-10-05T02:16:03.396Z,15.90
2022-10-05T02:18:40.895Z,14.40
2022-10-05T02:23:40.397Z,17.00
2022-10-05T02:26:10.929Z,16.50
2022-10-05T02:28:53.154Z,17.10
2022-10-05T02:31:25.254Z,16.70
2022-10-05T02:36:36.176Z,14.50
2022-10-05T02:39:14.933Z,17.10
2022-10-05T02:42:03.913Z,14.90
2022-10-05T02:44:48.564Z,15.80
2022-10-05T02:47:40.853Z,15.80
2022-10-05T02:50:17.452Z,14.70
2022-10-05T02:53:02.697Z,15.80
2022-10-05T02:55:51.095Z,15.80
2022-10-05T02:58:28.437Z,15.90
2022-10-05T03:01:04.869Z,14.80
2022-10-05T03:03:45.055Z,15.80
2022-10-05T03:06:27.269Z,15.70
2022-10-05T03:09:07.892Z,15.80
2022-10-05T03:11:56.489Z,15.80
2022-10-05T03:14:33.378Z,14.50
2022-10-05T03:17:06.078Z,16.50
2022-10-05T03:19:39.052Z,15.80
2022-10-05T03:24:57.969Z,15.80
2022-10-05T03:27:43.074Z,15.30
2022-10-05T03:32:57.672Z,16.90
2022-10-05T03:35:41.794Z,15.90
2022-10-05T03:38:34.520Z,17.10
2022-10-05T03:41:26.505Z,15.90
2022-10-05T03:44:21.798Z,14.60
2022-10-05T03:46:58.512Z,14.60
2022-10-05T03:49:47.925Z,15.90
2022-10-05T03:52:22.925Z,15.80
2022-10-05T03:55:00.126Z,16.90
2022-10-05T03:57:32.333Z,15.80
2022-10-05T04:00:12.754Z,15.70
2022-10-05T04:03:01.859Z,16.60
2022-10-05T04:05:33.604Z,15.80
2022-10-05T04:08:08.137Z,16.10
2022-10-05T04:10:49.441Z,15.80
2022-10-05T04:13:46.732Z,15.80
2022-10-05T04:16:36.202Z,15.30
2022-10-05T04:19:28.160Z,15.80
2022-10-05T04:22:15.820Z,14.90
2022-10-05T04:24:54.518Z,14.60
2022-10-05T04:27:31.285Z,15.70
2022-10-05T04:30:13.158Z,15.80
2022-10-05T04:32:55.723Z,15.80
2022-10-05T04:35:38.292Z,15.80
2022-10-05T04:38:32.449Z,15.90
2022-10-05T04:41:21.325Z,14.80
2022-10-05T04:46:36.678Z,15.80
2022-10-05T04:51:37.207Z,15.80
2022-10-05T04:54:12.177Z,15.80
2022-10-05T04:56:44.596Z,15.70
2022-10-05T04:59:31.494Z,17.00
2022-10-05T05:02:13.323Z,16.40
2022-10-05T05:04:54.014Z,15.70
2022-10-05T05:09:49.660Z,16.50
2022-10-05T05:12:43.634Z,15.70
2022-10-05T05:17:41.772Z,15.80
2022-10-05T05:20:44.545Z,15.80
2022-10-05T05:23:40.746Z,15.80
2022-10-05T05:26:17.662Z,17.10
2022-10-05T05:29:11.365Z,15.80
2022-10-05T05:32:05.630Z,16.40
2022-10-05T05:34:35.838Z,14.50
2022-10-05T05:37:07.379Z,15.80
2022-10-05T05:39:59.898Z,15.80
2022-10-05T05:42:42.414Z,15.80
2022-10-05T05:45:22.919Z,15.80
2022-10-05T05:47:53.890Z,14.70
2022-10-05T05:53:03.275Z,15.80
2022-10-05T05:55:52.103Z,15.70
2022-10-05T05:58:21.656Z,15.80
2022-10-05T06:01:02.556Z,15.70
2022-10-05T06:03:47.905Z,15.50
2022-10-05T06:06:17.619Z,15.70
2022-10-05T06:08:51.993Z,15.70
2022-10-05T06:11:32.151Z,15.70
2022-10-05T06:14:05.069Z,15.70
2022-10-05T06:16:40.873Z,15.70
2022-10-05T06:19:14.547Z,15.50
2022-10-05T06:24:26.748Z,15.60
2022-10-05T06:27:25.154Z,14.90
2022-10-05T06:30:06.574Z,15.70
2022-10-05T06:32:50.930Z,15.60
2022-10-05T06:35:23.344Z,15.60
2022-10-05T06:38:03.278Z,14.50
2022-10-05T06:40:55.384Z,16.00
2022-10-05T06:43:56.076Z,14.40
2022-10-05T06:47:04.143Z,17.00
2022-10-05T06:49:52.468Z,17.20
2022-10-05T06:53:12.618Z,15.80
2022-10-05T06:55:56.180Z,17.20
2022-10-05T06:58:45.988Z,15.90
2022-10-05T07:01:20.676Z,14.60
2022-10-05T07:04:15.713Z,16.00
2022-10-05T07:09:36.985Z,17.00
2022-10-05T07:12:10.523Z,16.10
2022-10-05T07:14:59.829Z,15.00
2022-10-05T07:17:45.495Z,16.10
2022-10-05T07:20:39.016Z,16.10
2022-10-05T07:23:14.927Z,16.50
2022-10-05T07:26:09.512Z,16.20
2022-10-05T07:29:07.806Z,16.20
2022-10-05T07:31:50.082Z,17.50
2022-10-05T07:37:12.180Z,16.00
2022-10-05T07:40:00.220Z,17.40
2022-10-05T07:42:51.845Z,16.30
2022-10-05T07:45:47.033Z,16.30
2022-10-05T07:48:33.135Z,16.60
2022-10-05T07:51:45.086Z,16.30
2022-10-05T07:54:27.384Z,16.60
2022-10-05T07:57:27.154Z,16.30
2022-10-05T08:00:07.392Z,16.30
2022-10-05T08:05:19.846Z,15.20
2022-10-05T08:07:52.253Z,16.30
2022-10-05T08:10:59.837Z,15.30
2022-10-05T08:15:59.977Z,16.20
2022-10-05T08:18:51.985Z,16.50
2022-10-05T08:21:36.874Z,16.20
2022-10-05T08:24:13.446Z,16.20
2022-10-05T08:26:59.940Z,17.20
2022-10-05T08:29:34.227Z,16.40
2022-10-05T08:32:12.121Z,16.40
2022-10-05T08:35:03.388Z,15.10
2022-10-05T08:37:37.324Z,16.40
2022-10-05T08:40:23.117Z,16.40
2022-10-05T08:43:01.167Z,16.40
2022-10-05T08:45:37.120Z,17.10
2022-10-05T08:48:09.807Z,16.40
2022-10-05T08:50:54.497Z,18.30
2022-10-05T08:53:42.999Z,15.20
2022-10-05T08:56:31.663Z,17.60
2022-10-05T08:59:36.542Z,15.50
2022-10-05T09:02:34.965Z,15.30
2022-10-05T09:05:30.286Z,16.60
2022-10-05T09:08:20.286Z,15.60
2022-10-05T09:11:26.340Z,16.90
2022-10-05T09:14:21.524Z,16.10
2022-10-05T09:19:36.312Z,18.20
2022-10-05T09:22:16.426Z,17.00
2022-10-05T09:24:57.140Z,18.10
2022-10-05T09:27:46.474Z,16.90
2022-10-05T09:30:26.847Z,17.40
2022-10-05T09:32:59.529Z,17.40
2022-10-05T09:38:12.216Z,17.00
2022-10-05T09:41:04.624Z,17.60
2022-10-05T09:43:53.197Z,17.70
2022-10-05T09:46:45.804Z,19.30
2022-10-05T09:49:32.860Z,17.80
2022-10-05T09:52:15.158Z,17.80
2022-10-05T09:55:41.626Z,17.90
2022-10-05T09:58:24.792Z,18.90
2022-10-05T10:01:08.921Z,17.40
2022-10-05T10:04:14.343Z,18.10
2022-10-05T10:07:02.329Z,18.80
2022-10-05T10:09:43.825Z,18.20
2022-10-05T10:12:31.850Z,17.20
2022-10-05T10:15:52.541Z,18.20
2022-10-05T10:18:40.685Z,17.50
2022-10-05T10:21:25.395Z,18.40
2022-10-05T10:26:43.387Z,17.20
2022-10-05T10:29:53.675Z,18.40
2022-10-05T10:32:43.803Z,18.40
2022-10-05T10:35:32.288Z,19.60
2022-10-05T10:38:11.639Z,18.40
2022-10-05T10:41:03.493Z,18.10
2022-10-05T10:43:58.486Z,19.50
2022-10-05T10:46:35.687Z,17.70
2022-10-05T10:49:21.980Z,19.20
2022-10-05T10:52:13.964Z,21.20
2022-10-05T10:55:28.220Z,18.20
2022-10-05T10:58:16.892Z,16.80
2022-10-05T11:01:11.085Z,18.10
2022-10-05T11:03:59.071Z,18.10
2022-10-05T11:06:50.953Z,17.80
2022-10-05T11:09:30.124Z,16.80
2022-10-05T11:12:12.347Z,19.30
2022-10-05T11:15:01.333Z,18.10
2022-10-05T11:17:41.552Z,17.80
2022-10-05T11:20:39.758Z,19.80
2022-10-05T11:23:45.395Z,19.70
2022-10-05T11:26:40.037Z,18.20
2022-10-05T11:29:31.753Z,18.70
2022-10-05T11:32:20.309Z,19.00
2022-10-05T11:35:24.692Z,18.30
2022-10-05T11:38:36.735Z,18.50
2022-10-05T11:41:22.726Z,19.00
2022-10-05T11:49:09.234Z,18.70
2022-10-05T11:51:47.470Z,17.40
2022-10-05T11:54:58.451Z,18.80
2022-10-05T11:57:50.385Z,18.90
2022-10-05T12:00:36.126Z,20.50
2022-10-05T12:03:23.809Z,20.30
2022-10-05T12:06:18.041Z,20.30
2022-10-05T12:09:10.873Z,19.50
2022-10-05T12:11:58.096Z,17.70
2022-10-05T12:14:52.648Z,19.70
2022-10-05T12:17:42.672Z,19.10
2022-10-05T12:20:45.852Z,20.70
2022-10-05T12:23:42.380Z,18.80
2022-10-05T12:26:23.138Z,18.20
2022-10-05T12:29:25.391Z,19.80
2022-10-05T12:32:03.284Z,21.40
2022-10-05T12:35:29.689Z,20.50
2022-10-05T12:38:28.652Z,20.70
2022-10-05T12:40:55.527Z,21.30
2022-10-05T12:43:31.237Z,20.10
2022-10-05T12:46:35.746Z,21.50
2022-10-05T12:49:21.868Z,22.40
2022-10-05T12:52:03.558Z,20.90
2022-10-05T12:54:52.464Z,20.70
2022-10-05T12:57:26.776Z,22.00
2022-10-05T13:00:09.904Z,20.50
2022-10-05T13:02:48.387Z,20.10
2022-10-05T13:05:34.574Z,19.90
2022-10-05T13:08:10.489Z,20.20
2022-10-05T13:10:48.586Z,21.40
2022-10-05T13:13:46.406Z,20.00
2022-10-05T13:16:15.449Z,20.90
2022-10-05T13:19:00.276Z,20.10
2022-10-05T13:21:31.307Z,21.40
2022-10-05T13:24:17.384Z,21.40
2022-10-05T13:26:49.660Z,21.40
2022-10-05T13:29:38.707Z,21.50
2022-10-05T13:32:25.439Z,19.20
2022-10-05T13:35:02.699Z,20.70
2022-10-05T13:37:33.115Z,18.80
2022-10-05T13:40:20.057Z,20.20
2022-10-05T13:42:55.422Z,21.70
2022-10-05T13:45:29.789Z,22.20
2022-10-05T13:48:20.818Z,21.00
2022-10-05T13:51:06.029Z,22.20
2022-10-05T13:53:35.592Z,22.40
2022-10-05T13:56:21.529Z,20.10
2022-10-05T13:58:59.633Z,19.70
2022-10-05T14:04:24.666Z,20.80
2022-10-05T14:06:55.115Z,20.60
2022-10-05T14:11:51.402Z,21.20
2022-10-05T14:14:28.183Z,21.50
2022-10-05T14:17:00.841Z,22.10
2022-10-05T14:19:33.538Z,24.20
2022-10-05T14:22:13.622Z,23.00
2022-10-05T14:25:16.274Z,21.40
2022-10-05T14:27:50.863Z,22.10
2022-10-05T14:30:24.298Z,21.00
2022-10-05T14:32:56.083Z,22.60
2022-10-05T14:35:29.850Z,19.70
2022-10-05T14:38:00.979Z,21.20
2022-10-05T14:40:36.434Z,20.10
2022-10-05T14:43:17.936Z,18.90
2022-10-05T14:45:58.288Z,18.50
2022-10-05T14:48:28.021Z,18.80
2022-10-05T14:51:03.355Z,19.10
2022-10-05T14:53:40.528Z,19.70
2022-10-05T14:56:45.409Z,20.40
2022-10-05T14:59:50.338Z,19.80
2022-10-05T15:02:45.258Z,19.20
2022-10-05T15:05:23.281Z,19.90
2022-10-05T15:07:51.559Z,19.90
2022-10-05T15:10:36.967Z,19.90
2022-10-05T15:13:11.680Z,18.30
2022-10-05T15:16:04.620Z,19.50
2022-10-05T15:18:53.695Z,18.20
2022-10-05T15:21:49.018Z,19.20
2022-10-05T15:24:26.431Z,20.40
2022-10-05T15:27:02.843Z,17.90
2022-10-05T15:29:41.976Z,18.90
2022-10-05T15:32:33.361Z,18.80
2022-10-05T15:35:41.936Z,17.80
2022-10-05T15:38:17.255Z,18.70
2022-10-05T15:41:09.928Z,18.60
2022-10-05T15:44:07.228Z,19.10
2022-10-05T15:46:57.639Z,18.70
2022-10-05T15:49:50.571Z,18.50
2022-10-05T15:52:26.717Z,18.50
2022-10-05T15:55:19.687Z,18.40
2022-10-05T15:58:10.880Z,19.30
2022-10-05T16:00:50.347Z,18.30
2022-10-05T16:03:50.012Z,17.40
2022-10-05T16:06:57.018Z,18.40
2022-10-05T16:09:41.666Z,18.90
2022-10-05T16:12:09.646Z,18.40
2022-10-05T16:15:02.792Z,17.00
2022-10-05T16:20:20.721Z,16.90
2022-10-05T16:23:12.503Z,18.10
2022-10-05T16:26:03.856Z,18.40
2022-10-05T16:29:03.678Z,16.70
2022-10-05T16:31:54.416Z,18.40
2022-10-05T16:34:56.099Z,18.00
2022-10-05T16:37:45.391Z,19.40
2022-10-05T16:40:43.719Z,17.60
2022-10-05T16:43:13.577Z,17.90
2022-10-05T16:46:09.815Z,19.10
2022-10-05T16:48:56.570Z,16.70
2022-10-05T16:52:01.354Z,19.00
2022-10-05T16:54:43.115Z,17.80
2022-10-05T16:57:28.124Z,20.30
2022-10-05T17:00:19.788Z,17.80
2022-10-05T17:02:55.654Z,17.00
2022-10-05T17:05:52.997Z,17.00
2022-10-05T17:08:50.833Z,18.10
2022-10-05T17:11:52.120Z,16.40
2022-10-05T17:14:38.804Z,16.70
2022-10-05T17:17:43.450Z,17.80
2022-10-05T17:20:42.224Z,17.60
2022-10-05T17:23:29.177Z,17.70
2022-10-05T17:26:16.161Z,17.60
2022-10-05T17:28:52.115Z,17.60
2022-10-05T17:31:21.723Z,17.60
2022-10-05T17:34:30.515Z,17.70
2022-10-05T17:37:15.239Z,17.70
2022-10-05T17:39:54.116Z,17.60
2022-10-05T17:42:47.286Z,17.60
2022-10-05T17:45:14.237Z,16.50
2022-10-05T17:48:11.565Z,17.70
2022-10-05T17:51:05.061Z,18.90
2022-10-05T17:54:08.326Z,17.70
2022-10-05T17:56:47.212Z,19.10
2022-10-05T17:59:44.543Z,16.80
2022-10-05T18:02:39.128Z,19.50
2022-10-05T18:05:12.443Z,17.70
2022-10-05T18:07:48.323Z,16.30
2022-10-05T18:10:29.255Z,17.70
2022-10-05T18:12:59.284Z,16.70
2022-10-05T18:15:26.049Z,17.00
2022-10-05T18:17:58.159Z,19.10
2022-10-05T18:23:07.503Z,17.00
2022-10-05T18:25:39.919Z,19.00
2022-10-05T18:28:22.661Z,17.80
2022-10-05T18:31:17.499Z,17.00
2022-10-05T18:33:50.601Z,16.30
2022-10-05T18:36:48.192Z,17.70
2022-10-05T18:39:27.029Z,18.90
2022-10-05T18:42:02.926Z,17.80
2022-10-05T18:47:06.486Z,17.80
2022-10-05T18:49:51.754Z,17.80
2022-10-05T18:52:21.785Z,17.90
2022-10-05T18:55:23.038Z,16.90
2022-10-05T18:58:15.057Z,16.60
2022-10-05T19:03:51.239Z,17.00
2022-10-05T19:06:24.325Z,17.50
2022-10-05T19:09:19.715Z,16.60
2022-10-05T19:12:04.804Z,17.90
2022-10-05T19:15:06.624Z,17.00
2022-10-05T19:17:55.119Z,17.90
2022-10-05T19:20:37.390Z,17.90
2022-10-05T19:23:09.344Z,17.50
2022-10-05T19:25:58.704Z,19.20
2022-10-05T19:28:30.981Z,16.70
2022-10-05T19:31:13.316Z,17.70
2022-10-05T19:33:52.999Z,17.30
2022-10-05T19:36:34.732Z,18.00
2022-10-05T19:39:21.318Z,17.80
2022-10-05T19:41:53.823Z,19.10
2022-10-05T19:44:49.753Z,17.90
2022-10-05T19:47:44.465Z,17.50
2022-10-05T19:50:33.666Z,17.60
2022-10-05T19:53:10.314Z,16.50
2022-10-05T19:55:43.609Z,17.30
2022-10-05T19:58:22.608Z,15.60
2022-10-05T20:01:01.023Z,15.30
2022-10-05T20:03:34.474Z,14.30
2022-10-05T20:06:10.734Z,15.70
2022-10-05T20:08:43.773Z,15.90
2022-10-05T20:13:41.776Z,14.80
2022-10-05T20:16:32.070Z,15.50
2022-10-05T20:19:17.670Z,13.70
2022-10-05T20:22:00.526Z,13.90
2022-10-05T20:24:29.079Z,14.70
2022-10-05T20:27:17.633Z,13.70
2022-10-05T20:29:45.096Z,14.70
2022-10-05T20:32:17.728Z,13.70
2022-10-05T20:34:46.931Z,14.80
2022-10-05T20:37:16.727Z,14.80
2022-10-05T20:39:44.342Z,15.40
2022-10-05T20:42:11.562Z,14.60
2022-10-05T20:44:38.581Z,13.80
2022-10-05T20:47:08.740Z,13.60
2022-10-05T20:52:05.054Z,14.90
2022-10-05T20:54:32.614Z,15.00
2022-10-05T21:04:23.876Z,15.00
2022-10-05T21:11:51.558Z,15.60
2022-10-05T21:16:46.019Z,15.00
2022-10-05T21:19:14.911Z,14.90
2022-10-05T21:21:44.462Z,13.50
2022-10-05T21:24:13.611Z,15.40
2022-10-05T21:26:42.012Z,14.70
2022-10-05T21:29:12.572Z,14.70
2022-10-05T21:34:07.743Z,13.50
2022-10-05T21:39:01.975Z,13.60
2022-10-05T21:41:28.790Z,15.40
2022-10-05T21:46:26.309Z,14.30
2022-10-05T21:48:54.545Z,14.70
2022-10-05T21:51:25.009Z,14.70
2022-10-05T21:54:03.664Z,14.60
2022-10-05T21:56:35.021Z,14.50
2022-10-05T21:59:04.514Z,14.50
2022-10-05T22:08:53.371Z,13.40
2022-10-05T22:13:50.342Z,15.20
2022-10-05T22:16:21.199Z,14.10
2022-10-05T22:18:48.807Z,15.00
2022-10-05T22:23:45.364Z,14.80
2022-10-05T22:26:16.688Z,14.70
2022-10-05T22:28:44.232Z,14.00
2022-10-05T22:31:12.831Z,12.90
2022-10-05T22:33:40.816Z,13.90
2022-10-05T22:36:08.654Z,13.50
2022-10-05T23:00:57.459Z,13.10
2022-10-05T23:06:03.044Z,15.20
2022-10-05T23:08:31.824Z,12.60
2022-10-05T23:11:31.328Z,13.10
2022-10-05T23:16:28.153Z,13.90
2022-10-05T23:18:55.967Z,13.90
2022-10-05T23:21:24.333Z,14.00
2022-10-05T23:26:21.176Z,12.80
2022-10-05T23:31:19.410Z,15.00
2022-10-05T23:33:46.353Z,14.20
2022-10-05T23:36:14.932Z,13.80
2022-10-05T23:41:09.521Z,14.30
2022-10-05T23:46:05.553Z,14.50
2022-10-05T23:51:00.679Z,13.70
2022-10-05T23:55:55.322Z,13.70
2022-10-05T23:58:22.990Z,13.60
